Time;durP1;ratioP1;P1;durP2;ratioP2;P2;SDS_P1;SDS_P2;PMS_P1;PMS_P2;Temp;Humidity;BMP_temperature;BMP_pressure;BME280_temperature;BME280_humidity;BME280_pressure;Samples;Min_cycle;Max_cycle;Signal;HPM_P1;HPM_P2
2024/03/25 00:01:20;;;;;;;3.90;1.40;;;;;;;8.46;100.00;98999.69;5000213;28;20487;-73
2024/03/25 00:03:46;;;;;;;0.88;0.80;;;;;;;8.44;100.00;98992.88;5016403;28;20037;-73
2024/03/25 00:06:11;;;;;;;1.42;1.23;;;;;;;8.40;100.00;98981.75;5016255;28;20030;-73
2024/03/25 00:08:37;;;;;;;1.58;0.90;;;;;;;8.44;100.00;98987.53;5016256;28;20041;-74
2024/03/25 00:11:03;;;;;;;0.50;0.50;;;;;;;8.47;100.00;98974.56;5032230;28;20036;-73
2024/03/25 00:13:31;;;;;;;1.48;1.00;;;;;;;8.46;100.00;98974.75;4999945;28;20380;-73
2024/03/25 00:15:57;;;;;;;0.65;0.65;;;;;;;8.49;100.00;98977.84;5000168;28;20034;-73
2024/03/25 00:18:22;;;;;;;1.13;1.00;;;;;;;8.47;100.00;98971.06;5032107;28;20034;-73
2024/03/25 00:20:48;;;;;;;0.85;0.85;;;;;;;8.52;100.00;98968.56;5015681;28;20034;-74
2024/03/25 00:23:14;;;;;;;2.80;1.48;;;;;;;8.45;100.00;98967.75;5020106;28;20037;-73
2024/03/25 00:25:40;;;;;;;1.08;0.90;;;;;;;8.45;100.00;98963.22;5039222;28;20044;-73
2024/03/25 00:28:06;;;;;;;0.95;0.80;;;;;;;8.41;100.00;98953.94;5020834;28;20036;-73
2024/03/25 00:30:31;;;;;;;1.65;0.90;;;;;;;8.43;100.00;98954.56;5019387;28;20088;-73
2024/03/25 00:32:57;;;;;;;0.70;0.70;;;;;;;8.40;100.00;98946.13;5036360;28;20030;-73
2024/03/25 00:35:23;;;;;;;1.08;0.75;;;;;;;8.41;100.00;98940.53;5052987;28;20055;-73
2024/03/25 00:37:52;;;;;;;1.25;0.73;;;;;;;8.43;100.00;98935.81;5021966;28;20525;-73
2024/03/25 00:40:17;;;;;;;2.10;1.50;;;;;;;8.43;100.00;98927.78;5007424;28;20133;-74
2024/03/25 00:42:43;;;;;;;3.15;1.25;;;;;;;8.43;100.00;98918.94;5011264;28;20132;-73
2024/03/25 00:45:09;;;;;;;9.65;2.83;;;;;;;8.38;100.00;98917.66;5021078;28;20483;-73
2024/03/25 00:47:35;;;;;;;3.45;2.33;;;;;;;8.40;100.00;98916.66;5036604;28;20051;-73
2024/03/25 00:50:03;;;;;;;3.28;1.83;;;;;;;8.37;100.00;98905.31;5022079;28;20037;-73
2024/03/25 00:52:29;;;;;;;3.58;1.50;;;;;;;8.36;100.00;98898.31;5038373;28;20029;-73
2024/03/25 00:54:54;;;;;;;8.65;3.60;;;;;;;8.38;100.00;98890.88;5017538;28;20041;-73
2024/03/25 00:57:20;;;;;;;3.28;1.55;;;;;;;8.38;100.00;98882.84;5020395;28;20025;-73
2024/03/25 00:59:46;;;;;;;5.95;1.83;;;;;;;8.38;100.00;98882.84;5017336;28;20065;-73
2024/03/25 01:02:11;;;;;;;6.80;2.78;;;;;;;8.41;100.00;98870.09;5016231;28;20449;-73
2024/03/25 01:04:37;;;;;;;2.60;1.45;;;;;;;8.37;100.00;98864.31;5013142;28;20065;-73
2024/03/25 01:07:03;;;;;;;7.55;2.35;;;;;;;8.41;100.00;98857.53;5041493;28;20030;-74
2024/03/25 01:09:29;;;;;;;2.08;1.10;;;;;;;8.40;100.00;98850.53;5037917;28;20148;-73
2024/03/25 01:11:55;;;;;;;1.25;1.00;;;;;;;8.41;100.00;98846.00;5052621;28;20126;-73
2024/03/25 01:14:21;;;;;;;2.03;1.13;;;;;;;8.41;100.00;98843.31;5021454;28;20063;-73
2024/03/25 01:16:47;;;;;;;2.60;1.60;;;;;;;8.38;100.00;98831.94;5054797;28;20375;-76
2024/03/25 01:19:13;;;;;;;1.10;0.93;;;;;;;8.37;100.00;98826.81;5015612;28;20043;-72
2024/03/25 01:21:39;;;;;;;2.10;1.52;;;;;;;8.35;100.00;98816.31;5015886;28;20041;-73
2024/03/25 01:24:04;;;;;;;2.03;1.50;;;;;;;8.30;100.00;98808.06;5017371;28;20404;-74
2024/03/25 01:26:30;;;;;;;2.33;1.45;;;;;;;8.34;100.00;98808.50;5025512;28;20037;-72
2024/03/25 01:28:56;;;;;;;2.30;1.60;;;;;;;8.32;100.00;98803.34;5037179;28;20036;-73
2024/03/25 01:31:22;;;;;;;1.05;0.95;;;;;;;8.33;100.00;98804.16;5020839;28;20033;-73
2024/03/25 01:33:47;;;;;;;3.47;1.27;;;;;;;8.30;100.00;98800.03;5037516;28;20389;-73
2024/03/25 01:36:17;;;;;;;1.95;1.30;;;;;;;8.32;100.00;98800.66;5023557;28;20080;-73
2024/03/25 01:38:44;;;;;;;1.10;1.00;;;;;;;8.31;100.00;98799.03;5037531;28;20062;-72
2024/03/25 01:41:11;;;;;;;1.67;1.10;;;;;;;8.34;100.00;98790.56;5029664;28;20039;-73
2024/03/25 01:43:37;;;;;;;1.15;0.90;;;;;;;8.32;100.00;98781.09;5006239;28;20490;-72
2024/03/25 01:46:02;;;;;;;0.93;0.77;;;;;;;8.32;100.00;98767.72;5032734;28;20041;-72
2024/03/25 01:48:28;;;;;;;1.27;1.10;;;;;;;8.30;100.00;98759.88;5014371;28;20029;-72
2024/03/25 01:50:54;;;;;;;1.60;1.05;;;;;;;8.30;100.00;98749.16;4997242;28;20120;-73
2024/03/25 01:53:20;;;;;;;1.58;0.70;;;;;;;8.28;100.00;98737.88;5020001;28;20060;-72
2024/03/25 01:55:46;;;;;;;2.45;1.00;;;;;;;8.27;100.00;98732.72;5034753;28;20040;-73
2024/03/25 01:58:12;;;;;;;1.13;0.70;;;;;;;8.26;100.00;98733.75;5002060;28;20037;-72
2024/03/25 02:00:38;;;;;;;1.85;0.98;;;;;;;8.25;100.00;98722.19;5050488;28;20449;-73
2024/03/25 02:03:04;;;;;;;1.08;0.95;;;;;;;8.26;100.00;98731.91;5001149;28;20040;-72
2024/03/25 02:05:32;;;;;;;0.95;0.80;;;;;;;8.23;100.00;98718.94;5001987;28;20041;-72
2024/03/25 02:07:58;;;;;;;0.98;0.73;;;;;;;8.25;100.00;98724.06;5033402;28;20561;-72
2024/03/25 02:10:24;;;;;;;1.00;0.90;;;;;;;8.24;100.00;98712.53;5011225;28;20057;-72
2024/03/25 02:12:51;;;;;;;0.77;0.77;;;;;;;8.23;100.00;98705.53;4983578;28;20373;-72
2024/03/25 02:15:17;;;;;;;0.75;0.60;;;;;;;8.27;100.00;98705.94;5049328;28;20490;-73
2024/03/25 02:17:43;;;;;;;0.98;0.70;;;;;;;8.27;100.00;98698.72;5001854;28;20029;-73
2024/03/25 02:20:09;;;;;;;1.10;0.90;;;;;;;8.26;100.00;98682.88;5011377;28;20035;-73
2024/03/25 02:22:36;;;;;;;1.80;1.05;;;;;;;8.26;100.00;98681.03;5036887;28;20090;-72
2024/03/25 02:25:06;;;;;;;2.05;0.95;;;;;;;8.27;100.00;98671.94;4993106;28;20048;-73
2024/03/25 02:27:33;;;;;;;0.90;0.73;;;;;;;8.27;100.00;98671.13;5027405;28;20436;-73
2024/03/25 02:30:15;;;;;;;0.73;0.70;;;;;;;8.26;100.00;98662.28;5003437;28;20040;-73
2024/03/25 02:32:41;;;;;;;1.00;0.80;;;;;;;8.26;100.00;98661.47;5031412;28;20041;-72
2024/03/25 02:35:10;;;;;;;0.88;0.75;;;;;;;8.25;100.00;98649.91;5015506;28;20040;-72
2024/03/25 02:37:39;;;;;;;0.95;0.93;;;;;;;8.22;100.00;98650.34;5051882;28;20139;-73
2024/03/25 02:40:07;;;;;;;0.60;0.60;;;;;;;8.23;100.00;98635.94;5016040;28;20069;-73
2024/03/25 02:42:33;;;;;;;0.90;0.77;;;;;;;8.20;100.00;98627.50;5046255;28;20040;-72
2024/03/25 02:44:58;;;;;;;1.02;0.80;;;;;;;8.20;100.00;98633.66;5011282;28;20046;-72
2024/03/25 02:47:25;;;;;;;1.08;0.80;;;;;;;8.21;100.00;98632.66;4997708;28;20048;-73
2024/03/25 02:49:51;;;;;;;0.60;0.60;;;;;;;8.20;100.00;98622.13;5050698;28;20037;-73
2024/03/25 02:52:18;;;;;;;0.60;0.52;;;;;;;8.18;100.00;98611.66;5021724;28;20395;-73
2024/03/25 02:54:44;;;;;;;0.65;0.65;;;;;;;8.13;100.00;98601.59;5033591;28;20048;-73
2024/03/25 02:57:09;;;;;;;0.60;0.60;;;;;;;8.13;100.00;98598.91;5022827;28;20033;-73
2024/03/25 02:59:35;;;;;;;0.80;0.77;;;;;;;8.15;100.00;98596.84;5008603;28;20041;-72
2024/03/25 03:02:00;;;;;;;0.70;0.63;;;;;;;8.13;100.00;98582.84;5008082;28;20124;-72
2024/03/25 03:04:26;;;;;;;0.63;0.60;;;;;;;8.18;100.00;98579.53;5016517;28;20383;-72
2024/03/25 03:06:52;;;;;;;0.82;0.70;;;;;;;8.14;100.00;98580.97;5002036;28;20038;-72
2024/03/25 03:09:17;;;;;;;0.70;0.60;;;;;;;8.14;100.00;98573.75;5003474;28;20029;-72
2024/03/25 03:11:43;;;;;;;0.90;0.75;;;;;;;8.11;100.00;98570.72;5012586;28;20496;-72
2024/03/25 03:14:10;;;;;;;1.67;0.63;;;;;;;8.05;100.00;98558.19;5013464;28;20053;-73
2024/03/25 03:16:35;;;;;;;3.53;0.88;;;;;;;8.08;100.00;98555.06;5033997;28;20041;-73
2024/03/25 03:19:01;;;;;;;0.55;0.55;;;;;;;8.08;100.00;98552.41;5044192;28;20037;-72
2024/03/25 03:21:27;;;;;;;0.60;0.60;;;;;;;8.04;100.00;98549.31;5009818;28;20142;-72
2024/03/25 03:23:53;;;;;;;1.27;0.55;;;;;;;8.04;100.00;98535.94;5017392;28;20028;-72
2024/03/25 03:26:19;;;;;;;0.57;0.57;;;;;;;8.01;100.00;98527.53;5018887;28;20044;-73
2024/03/25 03:28:45;;;;;;;1.65;0.80;;;;;;;8.05;100.00;98526.88;5032565;28;20037;-73
2024/03/25 03:31:11;;;;;;;0.80;0.57;;;;;;;8.03;100.00;98522.78;5013859;28;20040;-73
2024/03/25 03:33:36;;;;;;;1.35;1.05;;;;;;;8.02;100.00;98513.09;5004580;28;20388;-73
2024/03/25 03:36:02;;;;;;;0.70;0.70;;;;;;;8.04;100.00;98514.53;4998399;28;20053;-72
2024/03/25 03:38:27;;;;;;;0.65;0.63;;;;;;;8.04;100.00;98501.13;5031588;28;20121;-74
2024/03/25 03:41:03;;;;;;;0.60;0.60;;;;;;;8.04;100.00;98493.09;5019299;28;20048;-73
2024/03/25 03:43:29;;;;;;;0.60;0.60;;;;;;;8.06;100.00;98488.38;4992704;28;20041;-73
2024/03/25 03:45:55;;;;;;;0.52;0.50;;;;;;;8.02;100.00;98479.16;5032599;28;20037;-73
2024/03/25 03:48:21;;;;;;;0.50;0.50;;;;;;;8.05;100.00;98480.56;5016144;28;20500;-74
2024/03/25 03:50:46;;;;;;;0.93;0.60;;;;;;;8.05;100.00;98473.34;4988927;28;20046;-73
2024/03/25 03:53:12;;;;;;;0.90;0.73;;;;;;;8.03;100.00;98470.06;5015965;28;20021;-73
2024/03/25 03:55:40;;;;;;;0.60;0.60;;;;;;;8.04;100.00;98470.88;5023411;28;20034;-73
2024/03/25 03:58:05;;;;;;;0.70;0.70;;;;;;;8.04;100.00;98473.56;5012277;28;20040;-73
2024/03/25 04:00:35;;;;;;;1.00;0.90;;;;;;;8.04;100.00;98466.34;4999444;28;20029;-73
2024/03/25 04:03:02;;;;;;;0.75;0.70;;;;;;;8.05;100.00;98473.34;4999406;28;20067;-72
2024/03/25 04:05:32;;;;;;;3.13;1.55;;;;;;;8.06;100.00;98468.81;5017785;28;20044;-73
2024/03/25 04:07:57;;;;;;;3.83;1.27;;;;;;;8.05;100.00;98459.16;5000747;28;20034;-72
2024/03/25 04:10:23;;;;;;;1.33;0.85;;;;;;;8.06;100.00;98469.63;5005347;28;20381;-73
2024/03/25 04:12:49;;;;;;;0.70;0.70;;;;;;;8.04;100.00;98457.50;4996104;28;20091;-72
2024/03/25 04:15:17;;;;;;;1.42;0.70;;;;;;;8.04;100.00;98454.81;5046818;28;20468;-72
2024/03/25 04:17:45;;;;;;;0.50;0.50;;;;;;;8.06;100.00;98458.13;5050125;28;20033;-72
2024/03/25 04:20:12;;;;;;;1.10;0.63;;;;;;;8.06;100.00;98453.56;5010630;28;20460;-73
2024/03/25 04:22:44;;;;;;;0.60;0.60;;;;;;;8.09;100.00;98452.31;5012801;28;20052;-72
2024/03/25 04:25:16;;;;;;;0.60;0.60;;;;;;;8.09;100.00;98453.13;4996691;28;20038;-72
2024/03/25 04:27:42;;;;;;;0.50;0.50;;;;;;;8.11;100.00;98444.91;5030066;28;20037;-73
2024/03/25 04:30:10;;;;;;;0.50;0.50;;;;;;;8.11;100.00;98439.56;5001500;28;20384;-74
2024/03/25 04:32:37;;;;;;;0.60;0.60;;;;;;;8.11;100.00;98434.19;5035238;28;20039;-72
2024/03/25 04:35:03;;;;;;;0.60;0.60;;;;;;;8.09;100.00;98430.91;5015917;28;20041;-73
2024/03/25 04:37:30;;;;;;;1.13;0.70;;;;;;;8.11;100.00;98432.34;5001176;28;20185;-73
2024/03/25 04:39:56;;;;;;;2.55;0.57;;;;;;;8.12;100.00;98433.16;5043611;28;20033;-73
2024/03/25 04:42:23;;;;;;;0.50;0.50;;;;;;;8.13;100.00;98432.94;5027818;28;20088;-72
2024/03/25 04:44:50;;;;;;;1.33;0.70;;;;;;;8.12;100.00;98422.44;5021132;28;20037;-73
2024/03/25 04:47:16;;;;;;;0.70;0.68;;;;;;;8.13;100.00;98416.06;5021237;28;20036;-72
2024/03/25 04:49:42;;;;;;;0.68;0.65;;;;;;;8.13;100.00;98418.75;5037964;28;20027;-72
2024/03/25 04:52:08;;;;;;;0.60;0.60;;;;;;;8.11;100.00;98408.25;5021252;28;20037;-73
2024/03/25 04:54:33;;;;;;;0.88;0.65;;;;;;;8.13;100.00;98410.72;5038250;28;20044;-75
2024/03/25 04:56:59;;;;;;;1.25;0.90;;;;;;;8.13;100.00;98419.56;5031302;28;20033;-74
2024/03/25 04:59:24;;;;;;;0.73;0.73;;;;;;;8.13;100.00;98413.41;5008556;28;20041;-73
2024/03/25 05:01:51;;;;;;;0.63;0.63;;;;;;;8.12;100.00;98417.09;5038065;28;20029;-73
2024/03/25 05:04:18;;;;;;;1.60;0.70;;;;;;;8.12;100.00;98415.25;5019336;28;20037;-73
2024/03/25 05:06:44;;;;;;;1.00;0.70;;;;;;;8.10;100.00;98411.97;5034752;28;20468;-73
2024/03/25 05:09:10;;;;;;;0.63;0.63;;;;;;;8.05;100.00;98408.31;5018466;28;20040;-73
2024/03/25 05:11:36;;;;;;;1.17;0.63;;;;;;;7.98;100.00;98404.84;5004804;28;20046;-73
2024/03/25 05:14:01;;;;;;;0.82;0.80;;;;;;;7.91;100.00;98403.06;5019888;28;20423;-73
2024/03/25 05:16:27;;;;;;;0.50;0.50;;;;;;;7.83;100.00;98397.13;5001940;28;20038;-73
2024/03/25 05:18:52;;;;;;;1.00;0.80;;;;;;;7.74;100.00;98388.53;4998528;28;20026;-73
2024/03/25 05:21:18;;;;;;;0.40;0.40;;;;;;;7.68;100.00;98392.09;5027908;28;20039;-73
2024/03/25 05:23:44;;;;;;;1.17;0.70;;;;;;;7.58;100.00;98387.19;5018077;28;20034;-73
2024/03/25 05:26:09;;;;;;;0.93;0.70;;;;;;;7.57;100.00;98387.41;5032447;28;20032;-73
2024/03/25 05:28:35;;;;;;;1.70;0.70;;;;;;;7.54;100.00;98382.47;5014268;28;20056;-72
2024/03/25 05:31:08;;;;;;;0.50;0.50;;;;;;;7.48;100.00;98376.16;5025107;28;20049;-73
2024/03/25 05:33:33;;;;;;;2.03;0.57;;;;;;;7.47;100.00;98379.88;5015146;28;20381;-73
2024/03/25 05:36:00;;;;;;;0.50;0.50;;;;;;;7.47;100.00;98385.22;5014634;28;20030;-73
2024/03/25 05:38:27;;;;;;;4.28;0.73;;;;;;;7.48;100.00;98384.97;5022653;28;20057;-73
2024/03/25 05:40:53;;;;;;;0.50;0.50;;;;;;;7.41;100.00;98376.19;5016264;28;20051;-73
2024/03/25 05:43:20;;;;;;;0.40;0.40;;;;;;;7.43;100.00;98382.13;5024642;28;20033;-73
2024/03/25 05:45:53;;;;;;;2.72;2.47;;;;;;;7.41;100.00;98380.69;5030598;28;20038;-73
2024/03/25 05:48:19;;;;;;;1.90;0.77;;;;;;;7.37;100.00;98380.31;5033198;28;20070;-73
2024/03/25 05:50:45;;;;;;;0.40;0.40;;;;;;;7.36;100.00;98372.53;5001337;28;20045;-73
2024/03/25 05:53:10;;;;;;;0.50;0.50;;;;;;;7.35;100.00;98382.38;5010772;28;20083;-73
2024/03/25 05:55:36;;;;;;;0.50;0.50;;;;;;;7.30;100.00;98382.19;5019768;28;20068;-73
2024/03/25 05:58:03;;;;;;;0.47;0.47;;;;;;;7.29;100.00;98377.06;5028798;28;20053;-73
2024/03/25 06:00:30;;;;;;;0.77;0.77;;;;;;;7.26;100.00;98383.66;4999236;28;20112;-74
2024/03/25 06:02:56;;;;;;;0.40;0.40;;;;;;;7.22;100.00;98382.44;5029125;28;20464;-73
2024/03/25 06:05:22;;;;;;;0.40;0.40;;;;;;;7.16;100.00;98378.75;5033374;28;20041;-72
2024/03/25 06:07:47;;;;;;;0.60;0.60;;;;;;;7.13;100.00;98373.84;4998857;28;20208;-72
2024/03/25 06:10:13;;;;;;;0.50;0.50;;;;;;;7.09;100.00;98369.13;5013875;28;20040;-73
2024/03/25 06:12:39;;;;;;;0.50;0.50;;;;;;;6.96;100.00;98378.00;5017498;28;20052;-72
2024/03/25 06:15:06;;;;;;;0.30;0.30;;;;;;;6.87;100.00;98365.94;5036816;28;20037;-72
2024/03/25 06:17:32;;;;;;;0.40;0.40;;;;;;;6.79;100.00;98358.97;5037297;28;20040;-72
2024/03/25 06:19:59;;;;;;;0.40;0.40;;;;;;;6.67;100.00;98337.44;5018987;28;20086;-72
2024/03/25 06:22:26;;;;;;;0.40;0.40;;;;;;;6.56;100.00;98330.91;5018224;28;20033;-72
2024/03/25 06:24:51;;;;;;;0.50;0.50;;;;;;;6.50;100.00;98318.38;5029175;28;20033;-72
2024/03/25 06:27:17;;;;;;;0.57;0.57;;;;;;;6.45;100.00;98331.53;5054754;28;20033;-72
2024/03/25 06:29:43;;;;;;;0.50;0.50;;;;;;;6.38;100.00;98325.41;5035964;28;20033;-73
2024/03/25 06:34:53;;;;;;;0.40;0.40;;;;;;;6.31;100.00;98337.94;5021194;28;20062;-73
2024/03/25 06:37:19;;;;;;;0.40;0.40;;;;;;;6.35;100.00;98347.13;5003234;28;20130;-72
2024/03/25 06:39:44;;;;;;;0.50;0.50;;;;;;;6.34;100.00;98342.84;5005352;28;20034;-72
2024/03/25 06:42:10;;;;;;;0.50;0.50;;;;;;;6.38;100.00;98339.56;5010419;28;20037;-72
2024/03/25 06:44:36;;;;;;;0.40;0.40;;;;;;;6.39;100.00;98330.50;4994818;28;20043;-73
2024/03/25 06:47:02;;;;;;;0.45;0.45;;;;;;;6.46;100.00;98325.16;5019834;28;20129;-73
2024/03/25 06:49:28;;;;;;;0.50;0.50;;;;;;;6.49;100.00;98321.25;5034361;28;20422;-72
2024/03/25 06:51:54;;;;;;;0.60;0.60;;;;;;;6.52;100.00;98324.31;5032168;28;20028;-72
2024/03/25 06:54:20;;;;;;;0.85;0.60;;;;;;;6.56;100.00;98317.56;5016859;28;20037;-73
2024/03/25 06:56:46;;;;;;;0.60;0.60;;;;;;;6.59;100.00;98321.66;5005939;28;20114;-73
2024/03/25 06:59:11;;;;;;;0.47;0.47;;;;;;;6.62;100.00;98323.09;5005056;28;20037;-72
2024/03/25 07:01:37;;;;;;;0.50;0.50;;;;;;;6.57;100.00;98329.84;5007823;28;20049;-73
2024/03/25 07:04:03;;;;;;;0.40;0.40;;;;;;;6.60;100.00;98329.44;5032851;28;20060;-72
2024/03/25 07:06:28;;;;;;;0.40;0.40;;;;;;;6.60;100.00;98337.44;5011741;28;20484;-73
2024/03/25 07:08:54;;;;;;;1.45;0.50;;;;;;;6.60;100.00;98336.63;5000130;28;20025;-74
2024/03/25 07:11:20;;;;;;;0.80;0.60;;;;;;;6.60;100.00;98326.78;5018567;28;20032;-72
2024/03/25 07:13:46;;;;;;;0.63;0.63;;;;;;;6.57;100.00;98343.22;5015888;28;20392;-74
2024/03/25 07:16:11;;;;;;;0.40;0.40;;;;;;;6.52;100.00;98344.88;5003974;28;20065;-72
2024/03/25 07:18:37;;;;;;;0.77;0.77;;;;;;;6.49;100.00;98348.78;5039605;28;20083;-72
2024/03/25 07:21:03;;;;;;;4.03;0.60;;;;;;;6.46;100.00;98351.06;5023223;28;20041;-73
2024/03/25 07:23:28;;;;;;;0.52;0.52;;;;;;;6.47;100.00;98347.34;5009905;28;20148;-73
2024/03/25 07:25:54;;;;;;;0.40;0.40;;;;;;;6.40;100.00;98344.66;5022430;28;20052;-74
2024/03/25 07:28:20;;;;;;;1.65;1.55;;;;;;;6.41;100.00;98338.31;5010420;28;20025;-75
2024/03/25 07:30:47;;;;;;;0.60;0.60;;;;;;;6.39;100.00;98335.03;5015616;28;20507;-72
2024/03/25 07:33:12;;;;;;;3.13;0.60;;;;;;;6.40;100.00;98320.66;5012853;28;20038;-72
2024/03/25 07:35:40;;;;;;;0.40;0.40;;;;;;;6.44;100.00;98319.22;5031067;28;20034;-72
2024/03/25 07:38:07;;;;;;;0.50;0.50;;;;;;;6.49;100.00;98307.91;4998161;28;20124;-73
2024/03/25 07:40:33;;;;;;;0.50;0.50;;;;;;;6.50;100.00;98328.22;5021679;28;20204;-72
2024/03/25 07:42:58;;;;;;;2.58;0.75;;;;;;;6.49;100.00;98307.91;5012651;28;20524;-73
2024/03/25 07:45:24;;;;;;;0.68;0.68;;;;;;;6.51;100.00;98295.16;4996446;28;20058;-73
2024/03/25 07:47:50;;;;;;;0.50;0.50;;;;;;;6.44;100.00;98300.53;5002608;28;20037;-73
2024/03/25 07:50:16;;;;;;;0.50;0.50;;;;;;;6.48;100.00;98306.25;5012501;28;20095;-72
2024/03/25 07:52:42;;;;;;;2.63;0.68;;;;;;;6.46;100.00;98305.66;5044804;28;20074;-74
2024/03/25 07:55:08;;;;;;;0.55;0.55;;;;;;;6.48;100.00;98312.41;5023710;28;20060;-72
2024/03/25 07:57:33;;;;;;;0.47;0.47;;;;;;;6.47;100.00;98310.78;5012672;28;20033;-72
2024/03/25 07:59:59;;;;;;;0.40;0.40;;;;;;;6.51;100.00;98320.03;5013885;28;20034;-73
2024/03/25 08:02:25;;;;;;;0.50;0.50;;;;;;;6.52;100.00;98318.16;4996442;28;20037;-74
2024/03/25 08:04:51;;;;;;;4.85;0.50;;;;;;;6.55;100.00;98313.22;5004865;28;20037;-73
2024/03/25 08:07:16;;;;;;;3.25;0.60;;;;;;;6.57;100.00;98316.50;5033697;28;20051;-72
2024/03/25 08:09:42;;;;;;;0.50;0.50;;;;;;;6.63;100.00;98314.84;5019094;28;20476;-72
2024/03/25 08:12:08;;;;;;;0.55;0.55;;;;;;;6.66;100.00;98317.09;5040808;28;20030;-75
2024/03/25 08:14:36;;;;;;;2.65;0.70;;;;;;;6.72;100.00;98318.09;5018765;28;20603;-73
2024/03/25 08:17:02;;;;;;;0.50;0.50;;;;;;;6.77;100.00;98320.97;5003988;28;20038;-73
2024/03/25 08:19:28;;;;;;;0.43;0.43;;;;;;;6.74;100.00;98322.19;5028714;28;20035;-72
2024/03/25 08:21:54;;;;;;;0.50;0.50;;;;;;;6.71;100.00;98321.81;5014294;28;20033;-72
2024/03/25 08:24:19;;;;;;;0.50;0.50;;;;;;;6.74;100.00;98324.06;5022855;28;20074;-72
2024/03/25 08:26:45;;;;;;;0.52;0.52;;;;;;;6.79;100.00;98326.91;5038947;28;20032;-72
2024/03/25 08:29:11;;;;;;;0.40;0.40;;;;;;;6.80;100.00;98325.88;5037180;28;20040;-72
2024/03/25 08:31:36;;;;;;;0.55;0.55;;;;;;;6.84;100.00;98319.09;5010032;28;20086;-73
2024/03/25 08:34:02;;;;;;;0.70;0.60;;;;;;;6.80;100.00;98324.03;5035911;28;20052;-73
2024/03/25 08:36:28;;;;;;;0.52;0.52;;;;;;;6.80;100.00;98318.72;5001666;28;20038;-73
2024/03/25 08:38:53;;;;;;;0.50;0.50;;;;;;;6.83;100.00;98325.47;5005693;28;20483;-73
2024/03/25 08:41:22;;;;;;;2.25;0.73;;;;;;;6.87;100.00;98318.66;5036030;28;20029;-73
2024/03/25 08:43:47;;;;;;;0.60;0.60;;;;;;;6.84;100.00;98311.06;5022351;28;20041;-73
2024/03/25 08:46:25;;;;;;;0.93;0.93;;;;;;;6.79;100.00;98314.38;5022396;28;20383;-73
2024/03/25 08:48:51;;;;;;;0.50;0.50;;;;;;;6.80;100.00;98325.88;5022118;28;20041;-72
2024/03/25 08:51:16;;;;;;;0.50;0.50;;;;;;;6.74;100.00;98321.38;5022020;28;20094;-72
2024/03/25 08:53:42;;;;;;;1.52;0.70;;;;;;;6.73;100.00;98328.59;5038647;28;20356;-72
2024/03/25 08:56:07;;;;;;;0.60;0.60;;;;;;;6.72;100.00;98326.09;5022101;28;20028;-72
2024/03/25 08:58:33;;;;;;;0.50;0.50;;;;;;;6.74;100.00;98335.56;5022172;28;20033;-72
2024/03/25 09:00:59;;;;;;;0.50;0.50;;;;;;;6.64;100.00;98329.00;5022175;28;20025;-73
2024/03/25 09:03:24;;;;;;;0.70;0.70;;;;;;;6.57;100.00;98326.38;5022156;28;20029;-73
2024/03/25 09:05:50;;;;;;;1.02;0.77;;;;;;;6.64;100.00;98329.81;5054637;28;20379;-72
2024/03/25 09:08:15;;;;;;;0.93;0.52;;;;;;;6.70;100.00;98336.22;5022003;28;20033;-74
2024/03/25 09:13:29;;;;;;;0.73;0.73;;;;;;;6.90;100.00;98323.56;5054878;28;20084;-74
2024/03/25 09:15:55;;;;;;;0.52;0.52;;;;;;;7.18;100.00;98322.44;5005784;28;20036;-74
2024/03/25 09:18:20;;;;;;;0.90;0.73;;;;;;;7.69;100.00;98308.13;5021815;28;20533;-74
2024/03/25 09:20:46;;;;;;;0.50;0.50;;;;;;;8.12;100.00;98302.84;5037812;28;20032;-74
2024/03/25 09:23:12;;;;;;;0.57;0.57;;;;;;;8.27;100.00;98318.53;5021288;28;20487;-75
2024/03/25 09:25:37;;;;;;;2.38;0.82;;;;;;;8.14;100.00;98332.03;5035492;28;20054;-74
2024/03/25 09:28:03;;;;;;;1.08;0.52;;;;;;;7.92;100.00;98332.44;5026011;28;20025;-74
2024/03/25 09:30:29;;;;;;;0.70;0.70;;;;;;;7.70;100.00;98341.88;5046970;28;20120;-74
2024/03/25 09:32:55;;;;;;;0.50;0.50;;;;;;;7.56;100.00;98346.47;5030876;28;20033;-74
2024/03/25 09:35:21;;;;;;;0.57;0.57;;;;;;;7.28;100.00;98346.84;5018206;28;20053;-74
2024/03/25 09:37:47;;;;;;;4.30;0.80;;;;;;;7.01;100.00;98355.00;5011531;28;20040;-74
2024/03/25 09:40:13;;;;;;;4.25;0.82;;;;;;;6.86;100.00;98354.44;5021207;28;20387;-74
2024/03/25 09:42:47;;;;;;;1.25;0.70;;;;;;;6.94;100.00;98356.88;5006054;28;20477;-73
2024/03/25 09:45:13;;;;;;;0.82;0.82;;;;;;;7.13;100.00;98352.47;5027148;28;20041;-74
2024/03/25 09:47:39;;;;;;;1.25;0.60;;;;;;;7.31;100.00;98358.97;5036396;28;20887;-73
2024/03/25 09:50:08;;;;;;;0.82;0.65;;;;;;;7.35;100.00;98358.31;5023288;28;20030;-73
2024/03/25 09:52:34;;;;;;;0.50;0.50;;;;;;;7.45;100.00;98356.00;5010240;28;20041;-74
2024/03/25 09:54:59;;;;;;;0.63;0.63;;;;;;;7.53;100.00;98351.44;5009254;28;20040;-74
2024/03/25 09:57:25;;;;;;;0.50;0.50;;;;;;;7.45;100.00;98342.63;5025672;28;20048;-74
2024/03/25 09:59:51;;;;;;;0.50;0.50;;;;;;;7.45;100.00;98355.19;5014349;28;20519;-74
2024/03/25 10:02:17;;;;;;;0.50;0.50;;;;;;;7.45;100.00;98360.53;5002332;28;20033;-74
2024/03/25 10:04:45;;;;;;;0.75;0.75;;;;;;;7.47;100.00;98364.63;5020966;28;20037;-74
2024/03/25 10:07:11;;;;;;;0.40;0.40;;;;;;;7.21;100.00;98367.44;5027716;28;20029;-74
2024/03/25 10:09:36;;;;;;;0.63;0.63;;;;;;;7.21;100.00;98364.78;4997741;28;20038;-74
2024/03/25 10:12:02;;;;;;;0.50;0.50;;;;;;;7.25;100.00;98371.31;4981910;28;20030;-74
2024/03/25 10:14:28;;;;;;;0.50;0.50;;;;;;;7.36;100.00;98354.63;5014425;28;20037;-74
2024/03/25 10:16:53;;;;;;;0.70;0.70;;;;;;;7.46;100.00;98346.13;5049149;28;20065;-74
2024/03/25 10:19:19;;;;;;;0.60;0.60;;;;;;;7.33;100.00;98352.38;5033315;28;20026;-74
2024/03/25 10:21:44;;;;;;;0.80;0.77;;;;;;;7.25;100.00;98347.25;5016857;28;20030;-74
2024/03/25 10:24:11;;;;;;;0.50;0.50;;;;;;;7.33;100.00;98348.88;5000993;28;20530;-74
2024/03/25 10:26:38;;;;;;;0.60;0.60;;;;;;;7.51;100.00;98345.47;5034192;28;20041;-74
2024/03/25 10:29:07;;;;;;;0.50;0.50;;;;;;;7.66;100.00;98352.16;4998596;28;20034;-74
2024/03/25 10:31:34;;;;;;;1.08;1.05;;;;;;;7.70;100.00;98352.56;5026147;28;20049;-74
2024/03/25 10:34:00;;;;;;;0.77;0.60;;;;;;;7.71;100.00;98348.84;5020028;28;20449;-74
2024/03/25 10:36:26;;;;;;;0.50;0.50;;;;;;;7.96;100.00;98348.88;5051732;28;20039;-75
2024/03/25 10:38:57;;;;;;;0.50;0.50;;;;;;;8.11;100.00;98335.16;5044181;28;20100;-74
2024/03/25 10:41:25;;;;;;;0.90;0.82;;;;;;;8.27;100.00;98345.31;5047437;28;20105;-74
2024/03/25 10:43:53;;;;;;;0.75;0.75;;;;;;;8.67;100.00;98344.94;5000846;28;20467;-74
2024/03/25 10:46:25;;;;;;;0.60;0.60;;;;;;;8.80;100.00;98347.47;5036704;28;20025;-75
2024/03/25 10:49:01;;;;;;;0.60;0.60;;;;;;;8.87;100.00;98351.97;5010678;28;20465;-75
2024/03/25 10:51:28;;;;;;;0.98;0.85;;;;;;;8.97;100.00;98354.91;5057190;28;20059;-74
2024/03/25 10:53:54;;;;;;;0.63;0.63;;;;;;;8.98;100.00;98351.22;5000285;28;20037;-74
2024/03/25 10:56:21;;;;;;;0.50;0.50;;;;;;;9.23;100.00;98357.28;5000108;28;20034;-75
2024/03/25 10:58:50;;;;;;;0.85;0.85;;;;;;;9.32;100.00;98351.63;5033855;28;20441;-75
2024/03/25 11:01:19;;;;;;;0.60;0.60;;;;;;;9.23;100.00;98356.44;5040261;28;20030;-75
2024/03/25 11:03:46;;;;;;;0.52;0.52;;;;;;;9.05;100.00;98348.44;5012591;28;20120;-75
2024/03/25 11:06:12;;;;;;;0.57;0.57;;;;;;;9.09;100.00;98344.28;5012862;28;20053;-75
2024/03/25 11:08:38;;;;;;;0.65;0.65;;;;;;;8.87;100.00;98352.78;4999989;28;20033;-74
2024/03/25 11:11:05;;;;;;;0.40;0.40;;;;;;;8.97;100.00;98352.22;5033471;28;20533;-75
2024/03/25 11:13:31;;;;;;;0.50;0.50;;;;;;;8.97;100.00;98350.41;5005578;28;20168;-74
2024/03/25 11:15:58;;;;;;;0.50;0.50;;;;;;;8.64;100.00;98349.94;5041791;28;20530;-74
2024/03/25 11:18:25;;;;;;;0.85;0.85;;;;;;;8.50;100.00;98351.94;5019429;28;20060;-74
2024/03/25 11:21:05;;;;;;;0.73;0.60;;;;;;;8.50;100.00;98347.41;5013218;28;20038;-75
2024/03/25 11:23:44;;;;;;;0.63;0.63;;;;;;;8.81;100.00;98348.28;5040740;28;20040;-75
2024/03/25 11:26:22;;;;;;;0.60;0.60;;;;;;;9.16;100.00;98336.97;4995016;28;20128;-74
2024/03/25 11:28:49;;;;;;;0.60;0.60;;;;;;;9.52;100.00;98332.56;5012905;28;20025;-74
2024/03/25 11:31:15;;;;;;;0.60;0.60;;;;;;;9.77;100.00;98343.94;5012381;28;20033;-75
2024/03/25 11:33:41;;;;;;;0.60;0.60;;;;;;;9.83;100.00;98329.59;4996442;28;20033;-74
2024/03/25 11:36:07;;;;;;;0.60;0.60;;;;;;;9.51;100.00;98344.34;5023326;28;20045;-74